createdAt,value
2023-05-10T00:00:25.324Z,42.01
2023-05-10T00:01:25.337Z,41.91
2023-05-10T00:02:25.431Z,41.87
2023-05-10T00:03:25.485Z,41.83
2023-05-10T00:04:25.432Z,41.80
2023-05-10T00:05:25.466Z,41.78
2023-05-10T00:06:25.502Z,41.77
2023-05-10T00:07:25.548Z,41.76
2023-05-10T00:08:25.600Z,41.79
2023-05-10T00:09:25.628Z,41.77
2023-05-10T00:10:25.668Z,41.72
2023-05-10T00:11:25.708Z,41.75
2023-05-10T00:12:25.770Z,41.73
2023-05-10T00:13:25.996Z,41.72
2023-05-10T00:14:25.815Z,41.71
2023-05-10T00:15:25.858Z,41.67
2023-05-10T00:16:25.987Z,41.68
2023-05-10T00:17:25.969Z,41.71
2023-05-10T00:18:25.968Z,41.71
2023-05-10T00:19:26.003Z,41.73
2023-05-10T00:20:26.045Z,41.76
2023-05-10T00:21:26.090Z,41.68
2023-05-10T00:22:26.137Z,41.72
2023-05-10T00:23:26.172Z,41.70
2023-05-10T00:24:26.221Z,41.70
2023-05-10T00:25:26.236Z,41.70
2023-05-10T00:26:26.275Z,41.71
2023-05-10T00:27:26.317Z,41.72
2023-05-10T00:28:26.367Z,41.74
2023-05-10T00:29:26.423Z,41.74
2023-05-10T00:30:26.450Z,41.70
2023-05-10T00:31:26.519Z,41.69
2023-05-10T00:32:26.557Z,41.68
2023-05-10T00:33:26.607Z,41.69
2023-05-10T00:34:26.604Z,41.67
2023-05-10T00:35:26.646Z,41.68
2023-05-10T00:36:26.696Z,41.67
2023-05-10T00:37:26.745Z,41.69
2023-05-10T00:38:26.792Z,41.69
2023-05-10T00:39:26.819Z,41.72
2023-05-10T00:40:26.862Z,41.73
2023-05-10T00:41:26.912Z,41.70
2023-05-10T00:42:26.949Z,41.69
2023-05-10T00:43:26.997Z,41.72
2023-05-10T00:44:27.035Z,41.72
2023-05-10T00:45:27.115Z,41.71
2023-05-10T00:46:27.165Z,41.72
2023-05-10T00:47:27.223Z,41.71
2023-05-10T00:48:27.213Z,41.71
2023-05-10T00:49:27.259Z,41.71
2023-05-10T00:50:27.298Z,41.72
2023-05-10T00:51:27.334Z,41.69
2023-05-10T00:52:27.381Z,41.72
2023-05-10T00:53:27.428Z,41.72
2023-05-10T00:54:27.463Z,41.73
2023-05-10T00:55:27.515Z,41.73
2023-05-10T00:56:27.544Z,41.72
2023-05-10T00:57:27.576Z,41.73
2023-05-10T00:58:27.624Z,41.73
2023-05-10T00:59:27.675Z,41.74
2023-05-10T01:00:27.706Z,41.73
2023-05-10T01:01:27.844Z,41.72
2023-05-10T01:02:27.894Z,41.73
2023-05-10T01:03:27.863Z,41.74
2023-05-10T01:04:27.930Z,41.70
2023-05-10T01:05:27.929Z,41.72
2023-05-10T01:06:27.981Z,41.70
2023-05-10T01:07:28.027Z,41.72
2023-05-10T01:08:28.069Z,41.72
2023-05-10T01:09:28.114Z,41.72
2023-05-10T01:10:28.160Z,41.74
2023-05-10T01:11:28.209Z,41.73
2023-05-10T01:12:28.279Z,41.73
2023-05-10T01:13:28.316Z,41.71
2023-05-10T01:14:28.341Z,41.73
2023-05-10T01:15:28.386Z,41.72
2023-05-10T01:16:28.494Z,41.73
2023-05-10T01:17:28.554Z,41.73
2023-05-10T01:18:28.513Z,41.73
2023-05-10T01:19:28.561Z,41.73
2023-05-10T01:20:28.607Z,41.73
2023-05-10T01:21:28.646Z,41.75
2023-05-10T01:22:28.693Z,41.74
2023-05-10T01:23:28.734Z,41.75
2023-05-10T01:24:28.783Z,41.75
2023-05-10T01:25:28.828Z,41.74
2023-05-10T01:26:28.851Z,41.74
2023-05-10T01:27:28.907Z,41.74
2023-05-10T01:28:28.942Z,41.74
2023-05-10T01:29:28.980Z,41.72
2023-05-10T01:30:29.025Z,41.74
2023-05-10T01:31:29.099Z,41.74
2023-05-10T01:32:29.143Z,41.73
2023-05-10T01:33:29.231Z,41.75
2023-05-10T01:34:29.218Z,41.73
2023-05-10T01:35:29.283Z,41.73
2023-05-10T01:36:29.304Z,41.74
2023-05-10T01:37:29.357Z,41.74
2023-05-10T01:38:29.406Z,41.74
2023-05-10T01:39:29.445Z,41.76
2023-05-10T01:40:29.491Z,41.74
2023-05-10T01:41:29.554Z,41.74
2023-05-10T01:42:29.596Z,41.74
2023-05-10T01:43:29.653Z,41.73
2023-05-10T01:44:29.693Z,41.74
2023-05-10T01:45:29.748Z,41.73
2023-05-10T01:46:29.827Z,41.76
2023-05-10T01:47:29.882Z,41.74
2023-05-10T01:48:29.873Z,41.74
2023-05-10T01:49:29.941Z,41.74
2023-05-10T01:50:29.971Z,41.72
2023-05-10T01:51:30.007Z,41.75
2023-05-10T01:52:30.060Z,41.74
2023-05-10T01:53:30.125Z,41.75
2023-05-10T01:54:30.184Z,41.72
2023-05-10T01:55:30.216Z,41.76
2023-05-10T01:56:30.249Z,41.75
2023-05-10T01:57:30.300Z,41.73
2023-05-10T01:58:30.350Z,41.74
2023-05-10T01:59:30.411Z,41.75
2023-05-10T02:00:30.482Z,41.76
2023-05-10T02:01:30.500Z,41.76
2023-05-10T02:02:30.648Z,41.76
2023-05-10T02:03:30.640Z,41.76
2023-05-10T02:04:30.700Z,41.76
2023-05-10T02:05:30.816Z,41.75
2023-05-10T02:06:30.765Z,41.75
2023-05-10T02:07:30.811Z,41.75
2023-05-10T02:08:30.859Z,41.75
2023-05-10T02:09:30.919Z,41.75
2023-05-10T02:10:30.954Z,41.75
2023-05-10T02:11:31.010Z,41.77
2023-05-10T02:12:31.089Z,41.77
2023-05-10T02:13:31.146Z,41.76
2023-05-10T02:14:31.142Z,41.72
2023-05-10T02:15:31.189Z,41.73
2023-05-10T02:16:31.238Z,41.78
2023-05-10T02:17:31.288Z,41.76
2023-05-10T02:18:31.332Z,41.74
2023-05-10T02:19:31.377Z,41.76
2023-05-10T02:20:31.416Z,41.75
2023-05-10T02:21:31.495Z,41.74
2023-05-10T02:22:31.529Z,41.73
2023-05-10T02:23:31.578Z,41.74
2023-05-10T02:24:31.644Z,41.78
2023-05-10T02:25:31.680Z,41.74
2023-05-10T02:26:31.722Z,41.78
2023-05-10T02:27:31.797Z,41.77
2023-05-10T02:28:31.827Z,41.75
2023-05-10T02:29:31.889Z,41.75
2023-05-10T02:30:31.935Z,41.77
2023-05-10T02:31:32.045Z,41.76
2023-05-10T02:32:32.062Z,41.75
2023-05-10T02:33:32.069Z,41.76
2023-05-10T02:34:32.127Z,41.75
2023-05-10T02:35:32.168Z,41.78
2023-05-10T02:36:32.196Z,41.76
2023-05-10T02:37:32.326Z,41.75
2023-05-10T02:38:32.314Z,41.75
2023-05-10T02:39:32.317Z,41.78
2023-05-10T02:40:32.365Z,41.76
2023-05-10T02:41:32.410Z,41.77
2023-05-10T02:42:32.460Z,41.77
2023-05-10T02:43:32.503Z,41.78
2023-05-10T02:44:32.565Z,41.78
2023-05-10T02:45:32.588Z,41.77
2023-05-10T02:46:32.696Z,41.77
2023-05-10T02:47:32.696Z,41.76
2023-05-10T02:48:32.722Z,41.76
2023-05-10T02:49:32.760Z,41.75
2023-05-10T02:50:32.801Z,41.76
2023-05-10T02:51:32.854Z,41.76
2023-05-10T02:52:32.889Z,41.78
2023-05-10T02:53:33.018Z,41.75
2023-05-10T02:54:33.000Z,41.78
2023-05-10T02:55:33.045Z,41.74
2023-05-10T02:56:33.100Z,41.79
2023-05-10T02:57:33.142Z,41.78
2023-05-10T02:58:33.206Z,41.75
2023-05-10T02:59:33.237Z,41.76
2023-05-10T03:00:33.338Z,41.76
2023-05-10T03:01:33.365Z,41.76
2023-05-10T03:02:33.577Z,41.77
2023-05-10T03:03:33.434Z,41.76
2023-05-10T03:04:33.503Z,41.78
2023-05-10T03:05:33.530Z,41.78
2023-05-10T03:06:33.581Z,41.77
2023-05-10T03:07:33.624Z,41.76
2023-05-10T03:08:33.681Z,41.78
2023-05-10T03:09:33.753Z,41.76
2023-05-10T03:10:33.772Z,41.77
2023-05-10T03:11:33.815Z,41.76
2023-05-10T03:12:33.863Z,41.76
2023-05-10T03:13:33.990Z,41.75
2023-05-10T03:14:33.967Z,41.77
2023-05-10T03:15:34.011Z,41.77
2023-05-10T03:16:34.121Z,41.77
2023-05-10T03:17:34.146Z,41.78
2023-05-10T03:18:34.145Z,41.79
2023-05-10T03:19:34.208Z,41.78
2023-05-10T03:20:34.254Z,41.76
2023-05-10T03:21:34.304Z,41.78
2023-05-10T03:22:34.328Z,41.77
2023-05-10T03:23:34.386Z,41.76
2023-05-10T03:24:34.445Z,41.77
2023-05-10T03:25:34.525Z,41.78
2023-05-10T03:26:34.582Z,41.81
2023-05-10T03:27:34.611Z,41.80
2023-05-10T03:28:34.672Z,41.79
2023-05-10T03:29:34.730Z,41.76
2023-05-10T03:30:34.790Z,41.78
2023-05-10T03:31:34.837Z,41.77
2023-05-10T03:32:34.899Z,41.77
2023-05-10T03:33:34.919Z,41.79
2023-05-10T03:34:34.971Z,41.81
2023-05-10T03:35:35.018Z,41.79
2023-05-10T03:36:35.076Z,41.79
2023-05-10T03:37:35.138Z,41.80
2023-05-10T03:38:35.190Z,41.80
2023-05-10T03:39:35.248Z,41.77
2023-05-10T03:40:35.305Z,41.76
2023-05-10T03:41:35.388Z,41.80
2023-05-10T03:42:35.442Z,41.80
2023-05-10T03:43:35.483Z,41.78
2023-05-10T03:44:35.564Z,41.78
2023-05-10T03:45:35.629Z,41.79
2023-05-10T03:46:35.680Z,41.80
2023-05-10T03:47:35.775Z,41.79
2023-05-10T03:48:35.815Z,41.78
2023-05-10T03:49:35.862Z,41.79
2023-05-10T03:50:35.941Z,41.79
2023-05-10T03:51:35.974Z,41.78
2023-05-10T03:52:36.041Z,41.80
2023-05-10T03:53:36.094Z,41.80
2023-05-10T03:54:36.148Z,41.77
2023-05-10T03:55:36.202Z,41.79
2023-05-10T03:56:36.266Z,41.78
2023-05-10T03:57:36.347Z,41.80
2023-05-10T03:58:36.388Z,41.80
2023-05-10T03:59:36.444Z,41.80
2023-05-10T04:00:36.498Z,41.81
2023-05-10T04:01:36.634Z,41.81
2023-05-10T04:02:36.758Z,41.79
2023-05-10T04:03:36.714Z,41.80
2023-05-10T04:04:36.741Z,41.81
2023-05-10T04:05:36.822Z,41.82
2023-05-10T04:06:36.908Z,41.81
2023-05-10T04:07:36.906Z,41.82
2023-05-10T04:08:36.954Z,41.82
2023-05-10T04:09:37.009Z,41.80
2023-05-10T04:10:37.070Z,41.80
2023-05-10T04:11:37.117Z,41.80
2023-05-10T04:12:37.175Z,41.80
2023-05-10T04:13:37.263Z,41.81
2023-05-10T04:14:37.296Z,41.83
2023-05-10T04:15:37.344Z,41.83
2023-05-10T04:16:37.412Z,41.82
2023-05-10T04:17:37.518Z,41.84
2023-05-10T04:18:37.513Z,41.83
2023-05-10T04:19:37.560Z,41.80
2023-05-10T04:20:37.650Z,41.81
2023-05-10T04:21:37.670Z,41.81
2023-05-10T04:22:37.723Z,41.83
2023-05-10T04:23:37.790Z,41.83
2023-05-10T04:24:37.851Z,41.86
2023-05-10T04:25:37.887Z,41.84
2023-05-10T04:26:37.961Z,41.81
2023-05-10T04:27:38.007Z,41.83
2023-05-10T04:28:38.080Z,41.83
2023-05-10T04:29:38.162Z,41.83
2023-05-10T04:30:38.199Z,41.83
2023-05-10T04:31:38.245Z,41.85
2023-05-10T04:32:38.378Z,41.83
2023-05-10T04:33:38.373Z,41.83
2023-05-10T04:34:38.422Z,41.85
2023-05-10T04:35:38.483Z,41.84
2023-05-10T04:36:38.543Z,41.85
2023-05-10T04:37:38.651Z,41.86
2023-05-10T04:38:38.654Z,41.86
2023-05-10T04:39:40.295Z,41.85
2023-05-10T04:40:38.706Z,41.84
2023-05-10T04:41:38.705Z,41.85
2023-05-10T04:42:38.706Z,41.86
2023-05-10T04:43:38.691Z,41.86
2023-05-10T04:44:38.689Z,41.85
2023-05-10T04:45:38.700Z,41.84
2023-05-10T04:46:38.711Z,41.84
2023-05-10T04:47:38.697Z,41.84
2023-05-10T04:48:38.685Z,41.85
2023-05-10T04:49:38.689Z,41.86
2023-05-10T04:50:38.674Z,41.87
2023-05-10T04:51:38.666Z,41.85
2023-05-10T04:52:38.676Z,41.86
2023-05-10T04:53:38.666Z,41.85
2023-05-10T04:54:38.701Z,41.84
2023-05-10T04:55:38.679Z,41.85
2023-05-10T04:56:38.674Z,41.86
2023-05-10T04:57:38.698Z,41.84
2023-05-10T04:58:37.759Z,41.87
2023-05-10T04:59:38.929Z,41.87
2023-05-10T05:00:38.874Z,41.85
2023-05-10T05:01:38.980Z,41.84
2023-05-10T05:02:39.058Z,41.86
2023-05-10T05:03:39.168Z,41.86
2023-05-10T05:04:39.118Z,41.87
2023-05-10T05:05:39.167Z,41.87
2023-05-10T05:06:39.253Z,41.88
2023-05-10T05:07:39.285Z,41.89
2023-05-10T05:08:39.346Z,41.86
2023-05-10T05:09:39.414Z,41.90
2023-05-10T05:10:39.474Z,41.88
2023-05-10T05:11:39.544Z,41.90
2023-05-10T05:12:39.591Z,41.90
2023-05-10T05:13:39.656Z,41.88
2023-05-10T05:14:39.719Z,41.88
2023-05-10T05:15:39.765Z,41.88
2023-05-10T05:16:39.867Z,41.91
2023-05-10T05:17:40.185Z,41.90
2023-05-10T05:18:39.952Z,41.89
2023-05-10T05:19:40.424Z,41.89
2023-05-10T05:20:40.412Z,41.90
2023-05-10T05:21:40.124Z,41.89
2023-05-10T05:22:40.176Z,41.89
2023-05-10T05:23:40.239Z,41.88
2023-05-10T05:24:40.292Z,41.90
2023-05-10T05:25:40.380Z,41.92
2023-05-10T05:26:40.449Z,41.87
2023-05-10T05:27:40.493Z,41.87
2023-05-10T05:28:40.560Z,41.89
2023-05-10T05:29:40.617Z,41.92
2023-05-10T05:30:40.676Z,41.90
2023-05-10T05:31:40.746Z,41.90
2023-05-10T05:32:40.858Z,41.89
2023-05-10T05:33:40.893Z,41.89
2023-05-10T05:34:40.932Z,41.90
2023-05-10T05:35:40.991Z,41.89
2023-05-10T05:36:41.066Z,41.89
2023-05-10T05:37:41.118Z,41.92
2023-05-10T05:38:41.194Z,41.90
2023-05-10T05:39:41.251Z,41.88
2023-05-10T05:40:41.298Z,41.89
2023-05-10T05:41:41.373Z,41.89
2023-05-10T05:42:41.427Z,41.91
2023-05-10T05:43:41.497Z,41.92
2023-05-10T05:44:41.927Z,41.89
2023-05-10T05:45:41.650Z,41.91
2023-05-10T05:46:41.684Z,41.91
2023-05-10T05:47:41.837Z,41.90
2023-05-10T05:48:41.796Z,41.89
2023-05-10T05:49:41.972Z,41.93
2023-05-10T05:50:42.427Z,41.95
2023-05-10T05:51:41.992Z,41.92
2023-05-10T05:52:42.053Z,41.92
2023-05-10T05:53:42.111Z,41.91
2023-05-10T05:54:42.432Z,41.93
2023-05-10T05:55:42.242Z,41.91
2023-05-10T05:56:42.298Z,41.89
2023-05-10T05:57:42.432Z,41.91
2023-05-10T05:58:42.443Z,41.92
2023-05-10T05:59:42.964Z,41.89
2023-05-10T06:00:42.575Z,41.92
2023-05-10T06:01:43.661Z,41.93
2023-05-10T06:02:43.534Z,41.90
2023-05-10T06:03:46.008Z,41.90
2023-05-10T06:04:50.396Z,41.93
2023-05-10T06:05:42.771Z,41.95
2023-05-10T06:06:42.737Z,41.91
2023-05-10T06:07:42.973Z,41.92
2023-05-10T06:08:42.729Z,41.95
2023-05-10T06:09:42.736Z,41.92
2023-05-10T06:10:42.737Z,41.92
2023-05-10T06:11:42.737Z,41.94
2023-05-10T06:12:42.968Z,41.93
2023-05-10T06:13:42.716Z,41.90
2023-05-10T06:14:42.939Z,41.92
2023-05-10T06:15:42.716Z,41.92
2023-05-10T06:16:42.760Z,41.94
2023-05-10T06:17:42.769Z,41.91
2023-05-10T06:18:42.691Z,41.91
2023-05-10T06:19:42.687Z,41.90
2023-05-10T06:20:42.716Z,41.89
2023-05-10T06:21:42.681Z,41.91
2023-05-10T06:22:42.685Z,41.90
2023-05-10T06:23:42.674Z,41.89
2023-05-10T06:24:42.953Z,41.92
2023-05-10T06:25:42.689Z,41.89
2023-05-10T06:26:42.688Z,41.90
2023-05-10T06:27:42.760Z,41.90
2023-05-10T06:28:42.822Z,41.93
2023-05-10T06:29:42.948Z,41.89
2023-05-10T06:30:42.964Z,42.00
2023-05-10T06:31:43.077Z,41.95
2023-05-10T06:32:43.093Z,41.99
2023-05-10T06:33:43.147Z,41.98
2023-05-10T06:34:43.448Z,41.96
2023-05-10T06:35:43.272Z,42.01
2023-05-10T06:36:43.450Z,42.00
2023-05-10T06:37:43.395Z,41.99
2023-05-10T06:38:43.949Z,42.00
2023-05-10T06:39:43.516Z,42.02
2023-05-10T06:40:43.571Z,42.03
2023-05-10T06:41:43.645Z,42.04
2023-05-10T06:42:43.704Z,42.04
2023-05-10T06:43:43.769Z,42.04
2023-05-10T06:44:43.952Z,42.05
2023-05-10T06:45:43.937Z,42.03
2023-05-10T06:46:44.077Z,42.04
2023-05-10T06:47:44.058Z,42.04
2023-05-10T06:48:44.455Z,42.08
2023-05-10T06:49:44.129Z,42.10
2023-05-10T06:50:44.472Z,42.10
2023-05-10T06:51:44.236Z,42.10
2023-05-10T06:52:44.320Z,42.13
2023-05-10T06:53:44.361Z,42.13
2023-05-10T06:54:44.468Z,42.13
2023-05-10T06:55:44.491Z,42.14
2023-05-10T06:56:44.549Z,42.15
2023-05-10T06:57:44.607Z,42.15
2023-05-10T06:58:44.680Z,42.18
2023-05-10T06:59:44.723Z,42.19
2023-05-10T07:00:48.057Z,42.20
2023-05-10T07:01:44.857Z,42.20
2023-05-10T07:02:44.809Z,42.22
2023-05-10T07:03:45.010Z,42.23
2023-05-10T07:04:45.025Z,42.22
2023-05-10T07:05:44.791Z,42.18
2023-05-10T07:06:44.738Z,42.23
2023-05-10T07:07:44.734Z,42.24
2023-05-10T07:08:44.780Z,42.28
2023-05-10T07:09:44.736Z,42.34
2023-05-10T07:10:44.726Z,42.35
2023-05-10T07:11:44.717Z,42.39
2023-05-10T07:12:44.806Z,42.42
2023-05-10T07:13:44.757Z,42.47
2023-05-10T07:14:44.970Z,42.48
2023-05-10T07:15:44.689Z,42.50
2023-05-10T07:16:46.038Z,42.53
2023-05-10T07:17:46.098Z,42.50
2023-05-10T07:18:44.862Z,42.56
2023-05-10T07:19:44.932Z,42.54
2023-05-10T07:20:45.040Z,42.55
2023-05-10T07:21:45.021Z,42.60
2023-05-10T07:22:45.079Z,42.58
2023-05-10T07:23:45.355Z,42.62
2023-05-10T07:24:45.312Z,42.58
2023-05-10T07:25:45.226Z,42.58
2023-05-10T07:26:45.474Z,42.53
2023-05-10T07:27:45.437Z,42.57
2023-05-10T07:28:45.493Z,42.59
2023-05-10T07:29:45.419Z,42.58
2023-05-10T07:30:45.604Z,42.60
2023-05-10T07:31:46.058Z,42.68
2023-05-10T07:32:47.538Z,42.69
2023-05-10T07:33:45.565Z,43.10
2023-05-10T07:34:46.010Z,43.08
2023-05-10T07:35:45.576Z,43.31
2023-05-10T07:36:45.605Z,43.38
2023-05-10T07:37:45.559Z,43.41
2023-05-10T07:38:45.532Z,43.40
2023-05-10T07:39:46.014Z,43.49
2023-05-10T07:40:45.557Z,43.48
2023-05-10T07:41:45.504Z,43.57
2023-05-10T07:42:45.574Z,43.64
2023-05-10T07:43:45.584Z,43.60
2023-05-10T07:44:46.503Z,43.95
2023-05-10T07:45:45.713Z,43.98
2023-05-10T07:46:45.686Z,44.16
2023-05-10T07:47:45.831Z,44.17
2023-05-10T07:48:45.790Z,44.25
2023-05-10T07:49:45.984Z,44.30
2023-05-10T07:50:45.881Z,44.44
2023-05-10T07:51:46.160Z,44.54
2023-05-10T07:52:45.935Z,44.58
2023-05-10T07:53:45.932Z,44.55
2023-05-10T07:54:46.007Z,45.10
2023-05-10T07:55:53.427Z,45.32
2023-05-10T07:57:46.320Z,45.50
2023-05-10T07:58:45.952Z,45.60
2023-05-10T07:59:45.973Z,45.73
2023-05-10T08:00:45.933Z,45.93
2023-05-10T08:01:46.070Z,45.81
2023-05-10T08:02:45.996Z,45.96
2023-05-10T08:03:47.032Z,46.04
2023-05-10T08:04:45.986Z,46.02
2023-05-10T08:05:45.853Z,46.08
2023-05-10T08:06:46.078Z,46.02
2023-05-10T08:07:45.843Z,46.06
2023-05-10T08:08:46.798Z,46.26
2023-05-10T08:09:45.850Z,46.55
2023-05-10T08:10:45.781Z,46.40
2023-05-10T08:11:45.833Z,46.53
2023-05-10T08:12:45.792Z,46.51
2023-05-10T08:13:46.746Z,46.91
2023-05-10T08:14:45.989Z,46.86
2023-05-10T08:15:45.744Z,46.91
2023-05-10T08:16:45.693Z,46.96
2023-05-10T08:17:45.740Z,47.06
2023-05-10T08:18:45.762Z,47.04
2023-05-10T08:19:45.981Z,46.97
2023-05-10T08:20:45.653Z,46.89
2023-05-10T08:21:45.614Z,47.09
2023-05-10T08:22:45.660Z,47.09
2023-05-10T08:23:45.575Z,47.26
2023-05-10T08:24:45.984Z,47.24
2023-05-10T08:25:45.568Z,47.31
2023-05-10T08:26:45.778Z,47.33
2023-05-10T08:27:45.539Z,47.35
2023-05-10T08:28:45.483Z,47.37
2023-05-10T08:29:50.171Z,47.46
2023-05-10T08:30:45.478Z,47.55
2023-05-10T08:31:45.515Z,47.64
2023-05-10T08:32:45.418Z,47.65
2023-05-10T08:33:45.397Z,47.66
2023-05-10T08:34:45.547Z,47.71
2023-05-10T08:35:45.330Z,47.63
2023-05-10T08:36:45.311Z,47.59
2023-05-10T08:37:45.303Z,47.69
2023-05-10T08:38:45.301Z,47.80
2023-05-10T08:39:46.525Z,47.80
2023-05-10T08:41:17.024Z,47.66
2023-05-10T08:41:45.492Z,47.63
2023-05-10T08:42:45.179Z,47.67
2023-05-10T08:43:48.432Z,47.73
2023-05-10T08:44:46.293Z,47.67
2023-05-10T08:45:45.521Z,47.73
2023-05-10T08:46:45.216Z,47.69
2023-05-10T08:47:45.118Z,47.66
2023-05-10T08:48:45.046Z,47.42
2023-05-10T08:49:45.513Z,47.52
2023-05-10T08:50:45.523Z,47.38
2023-05-10T08:51:44.988Z,47.21
2023-05-10T08:52:44.962Z,47.13
2023-05-10T08:53:44.987Z,47.06
2023-05-10T08:54:44.997Z,47.05
2023-05-10T08:55:44.897Z,47.03
2023-05-10T08:56:44.878Z,46.99
2023-05-10T08:57:44.859Z,47.01
2023-05-10T08:58:44.996Z,46.96
2023-05-10T08:59:45.079Z,46.96
2023-05-10T09:00:45.024Z,46.93
2023-05-10T09:01:44.759Z,46.96
2023-05-10T09:02:44.764Z,46.89
2023-05-10T09:03:44.731Z,46.84
2023-05-10T09:04:44.821Z,46.81
2023-05-10T09:05:44.684Z,46.86
2023-05-10T09:06:44.660Z,46.76
2023-05-10T09:07:44.639Z,46.68
2023-05-10T09:08:44.622Z,46.73
2023-05-10T09:09:44.618Z,46.67
2023-05-10T09:10:45.014Z,46.68
2023-05-10T09:11:44.578Z,46.80
2023-05-10T09:12:44.536Z,46.66
2023-05-10T09:13:44.523Z,46.61
2023-05-10T09:14:45.109Z,46.55
2023-05-10T09:15:44.524Z,46.61
2023-05-10T09:16:44.540Z,46.53
2023-05-10T09:17:44.482Z,46.40
2023-05-10T09:18:44.414Z,46.45
2023-05-10T09:19:44.387Z,46.25
2023-05-10T09:20:44.510Z,46.29
2023-05-10T09:21:48.277Z,46.27
2023-05-10T09:22:44.318Z,46.20
2023-05-10T09:23:45.153Z,46.18
2023-05-10T09:24:44.269Z,46.28
2023-05-10T09:25:44.518Z,46.29
2023-05-10T09:26:44.229Z,46.22
2023-05-10T09:27:44.220Z,45.96
2023-05-10T09:28:44.190Z,46.08
2023-05-10T09:29:44.519Z,46.01
2023-05-10T09:30:44.205Z,45.93
2023-05-10T09:31:44.168Z,45.94
2023-05-10T09:32:44.857Z,45.85
2023-05-10T09:33:44.101Z,45.75
2023-05-10T09:34:44.512Z,45.73
2023-05-10T09:35:44.519Z,45.82
2023-05-10T09:36:44.059Z,45.78
2023-05-10T09:37:44.048Z,45.70
2023-05-10T09:38:44.540Z,45.75
2023-05-10T09:39:44.032Z,45.73
2023-05-10T09:40:44.005Z,45.75
2023-05-10T09:41:43.982Z,45.79
2023-05-10T09:42:43.965Z,45.69
2023-05-10T09:43:44.934Z,45.68
2023-05-10T09:44:43.926Z,45.64
2023-05-10T09:45:44.103Z,45.65
2023-05-10T09:46:43.919Z,45.62
2023-05-10T09:47:43.946Z,45.69
2023-05-10T09:48:43.842Z,45.67
2023-05-10T09:49:44.038Z,45.69
2023-05-10T09:50:43.807Z,45.68
2023-05-10T09:51:43.785Z,45.61
2023-05-10T09:52:43.785Z,45.61
2023-05-10T09:53:44.033Z,45.64
2023-05-10T09:54:44.336Z,45.69
2023-05-10T09:55:43.815Z,45.83
2023-05-10T09:56:45.037Z,46.00
2023-05-10T09:57:43.829Z,46.11
2023-05-10T09:58:43.886Z,46.20
2023-05-10T09:59:43.836Z,46.30
2023-05-10T10:00:44.030Z,46.43
2023-05-10T10:01:43.862Z,46.45
2023-05-10T10:02:43.954Z,46.55
2023-05-10T10:03:43.870Z,46.60
2023-05-10T10:04:43.895Z,46.64
2023-05-10T10:05:44.018Z,46.80
2023-05-10T10:06:43.833Z,46.71
2023-05-10T10:07:43.819Z,46.70
2023-05-10T10:08:43.804Z,46.67
2023-05-10T10:09:43.810Z,46.67
2023-05-10T10:10:44.024Z,46.32
2023-05-10T10:11:43.773Z,46.31
2023-05-10T10:12:43.780Z,45.60
2023-05-10T10:13:43.774Z,45.60
2023-05-10T10:14:43.799Z,45.17
2023-05-10T10:15:44.095Z,45.13
2023-05-10T10:16:55.693Z,45.01
2023-05-10T10:17:43.787Z,44.93
2023-05-10T10:18:44.094Z,44.92
2023-05-10T10:19:43.752Z,44.86
2023-05-10T10:20:44.072Z,44.98
2023-05-10T10:21:43.701Z,44.75
2023-05-10T10:22:43.701Z,44.64
2023-05-10T10:23:43.662Z,44.65
2023-05-10T10:24:43.692Z,44.60
2023-05-10T10:25:44.582Z,44.57
2023-05-10T10:26:43.634Z,44.53
2023-05-10T10:27:43.595Z,44.50
2023-05-10T10:28:43.739Z,44.54
2023-05-10T10:29:43.567Z,44.82
2023-05-10T10:30:44.064Z,45.07
2023-05-10T10:31:43.582Z,45.08
2023-05-10T10:32:43.546Z,45.28
2023-05-10T10:33:43.783Z,45.41
2023-05-10T10:34:43.485Z,45.57
2023-05-10T10:35:43.576Z,45.66
2023-05-10T10:36:44.484Z,45.72
2023-05-10T10:37:43.433Z,45.84
2023-05-10T10:38:43.411Z,45.93
2023-05-10T10:39:43.547Z,45.95
2023-05-10T10:40:43.397Z,46.00
2023-05-10T10:41:43.547Z,46.04
2023-05-10T10:42:43.351Z,46.07
2023-05-10T10:43:43.326Z,46.06
2023-05-10T10:44:43.307Z,46.21
2023-05-10T10:45:43.289Z,46.24
2023-05-10T10:46:43.595Z,46.28
2023-05-10T10:47:43.279Z,46.20
2023-05-10T10:48:43.291Z,46.29
2023-05-10T10:49:43.396Z,46.31
2023-05-10T10:50:43.371Z,46.34
2023-05-10T10:51:43.559Z,46.35
2023-05-10T10:52:43.530Z,46.51
2023-05-10T10:53:43.566Z,46.50
2023-05-10T10:54:43.564Z,46.54
2023-05-10T10:55:43.614Z,46.50
2023-05-10T10:56:43.654Z,46.62
2023-05-10T10:57:44.044Z,46.60
2023-05-10T10:58:43.734Z,46.55
2023-05-10T10:59:43.773Z,46.62
2023-05-10T11:00:43.840Z,46.55
2023-05-10T11:01:44.041Z,46.57
2023-05-10T11:02:43.892Z,46.63
2023-05-10T11:03:43.904Z,46.57
2023-05-10T11:04:44.078Z,46.58
2023-05-10T11:05:44.482Z,46.70
2023-05-10T11:06:43.998Z,46.68
2023-05-10T11:07:44.049Z,46.57
2023-05-10T11:08:44.041Z,46.57
2023-05-10T11:09:44.551Z,46.65
2023-05-10T11:10:44.112Z,46.69
2023-05-10T11:11:44.558Z,46.47
2023-05-10T11:12:44.114Z,46.32
2023-05-10T11:13:44.174Z,45.95
2023-05-10T11:14:44.152Z,45.54
2023-05-10T11:15:44.193Z,45.31
2023-05-10T11:16:44.591Z,45.31
2023-05-10T11:17:44.321Z,45.53
2023-05-10T11:18:44.335Z,45.47
2023-05-10T11:19:44.574Z,45.59
2023-05-10T11:20:44.315Z,45.73
2023-05-10T11:21:44.347Z,45.65
2023-05-10T11:22:44.372Z,45.65
2023-05-10T11:23:44.456Z,45.56
2023-05-10T11:24:44.444Z,45.68
2023-05-10T11:25:44.496Z,45.65
2023-05-10T11:26:44.515Z,45.73
2023-05-10T11:27:44.552Z,45.69
2023-05-10T11:28:44.593Z,45.71
2023-05-10T11:29:44.620Z,45.69
2023-05-10T11:30:44.723Z,45.79
2023-05-10T11:31:45.080Z,45.83
2023-05-10T11:32:44.778Z,45.81
2023-05-10T11:33:44.785Z,45.82
2023-05-10T11:34:44.817Z,45.87
2023-05-10T11:35:44.852Z,45.88
2023-05-10T11:36:44.913Z,45.89
2023-05-10T11:37:44.939Z,45.93
2023-05-10T11:38:44.986Z,45.92
2023-05-10T11:39:45.045Z,45.94
2023-05-10T11:40:45.073Z,45.95
2023-05-10T11:41:45.102Z,45.99
2023-05-10T11:42:45.560Z,46.00
2023-05-10T11:43:45.195Z,46.00
2023-05-10T11:44:46.159Z,45.94
2023-05-10T11:45:45.285Z,45.99
2023-05-10T11:46:46.405Z,46.04
2023-05-10T11:47:45.407Z,46.04
2023-05-10T11:48:45.426Z,46.11
2023-05-10T11:49:45.510Z,46.02
2023-05-10T11:50:45.520Z,46.05
2023-05-10T11:51:45.571Z,46.16
2023-05-10T11:52:45.608Z,46.12
2023-05-10T11:53:45.654Z,45.85
2023-05-10T11:54:45.702Z,45.59
2023-05-10T11:55:45.785Z,45.63
2023-05-10T11:56:45.813Z,45.69
2023-05-10T11:57:45.857Z,46.10
2023-05-10T11:58:46.092Z,45.98
2023-05-10T11:59:45.910Z,46.01
2023-05-10T12:00:45.944Z,46.16
2023-05-10T12:01:46.068Z,46.26
2023-05-10T12:02:46.058Z,46.19
2023-05-10T12:03:46.357Z,46.25
2023-05-10T12:04:46.136Z,46.16
2023-05-10T12:05:46.159Z,46.09
2023-05-10T12:06:46.204Z,46.23
2023-05-10T12:07:46.209Z,46.38
2023-05-10T12:08:46.261Z,46.27
2023-05-10T12:09:46.270Z,46.45
2023-05-10T12:10:46.327Z,46.26
2023-05-10T12:11:46.404Z,46.26
2023-05-10T12:12:46.384Z,46.27
2023-05-10T12:13:46.407Z,46.24
2023-05-10T12:14:49.668Z,45.91
2023-05-10T12:15:46.466Z,45.75
2023-05-10T12:16:46.538Z,45.98
2023-05-10T12:17:46.617Z,45.77
2023-05-10T12:18:46.436Z,45.76
2023-05-10T12:19:46.383Z,45.67
2023-05-10T12:20:46.366Z,45.54
2023-05-10T12:21:46.364Z,45.58
2023-05-10T12:22:46.337Z,45.67
2023-05-10T12:23:46.308Z,45.51
2023-05-10T12:24:47.288Z,45.66
2023-05-10T12:25:46.272Z,45.75
2023-05-10T12:26:46.585Z,45.61
2023-05-10T12:27:46.272Z,45.76
2023-05-10T12:28:46.246Z,45.62
2023-05-10T12:29:46.230Z,45.50
2023-05-10T12:30:46.214Z,45.53
2023-05-10T12:31:46.233Z,45.54
2023-05-10T12:32:46.224Z,45.50
2023-05-10T12:33:46.182Z,45.53
2023-05-10T12:34:46.146Z,45.61
2023-05-10T12:35:46.174Z,45.60
2023-05-10T12:36:46.100Z,45.58
2023-05-10T12:37:46.105Z,45.69
2023-05-10T12:38:46.111Z,45.59
2023-05-10T12:39:46.053Z,45.46
2023-05-10T12:40:46.084Z,45.45
2023-05-10T12:41:46.037Z,45.50
2023-05-10T12:42:46.078Z,45.46
2023-05-10T12:43:46.107Z,45.42
2023-05-10T12:44:45.969Z,45.46
2023-05-10T12:45:45.982Z,45.51
2023-05-10T12:46:45.928Z,45.53
2023-05-10T12:47:46.045Z,45.65
2023-05-10T12:48:45.900Z,45.61
2023-05-10T12:49:45.872Z,45.60
2023-05-10T12:50:45.864Z,45.63
2023-05-10T12:51:45.845Z,45.56
2023-05-10T12:52:45.829Z,45.58
2023-05-10T12:54:44.791Z,45.66